createdAt,value
2023-02-11T00:01:51.472Z,31.10
2023-02-11T00:04:19.926Z,29.30
2023-02-11T00:06:48.504Z,28.80
2023-02-11T00:09:22.797Z,29.30
2023-02-11T00:11:51.279Z,30.80
2023-02-11T00:14:19.531Z,29.10
2023-02-11T00:16:48.013Z,31.40
2023-02-11T00:19:16.917Z,33.20
2023-02-11T00:21:45.297Z,30.30
2023-02-11T00:24:13.745Z,32.10
2023-02-11T00:26:42.471Z,28.60
2023-02-11T00:29:11.014Z,27.90
2023-02-11T00:31:39.813Z,27.30
2023-02-11T00:34:08.118Z,29.80
2023-02-11T00:36:37.513Z,29.00
2023-02-11T00:39:06.631Z,28.00
2023-02-11T00:41:37.275Z,31.00
2023-02-11T00:44:05.902Z,31.50
2023-02-11T00:46:35.033Z,30.80
2023-02-11T00:49:03.621Z,30.10
2023-02-11T00:51:31.899Z,30.60
2023-02-11T00:54:00.509Z,33.00
2023-02-11T00:56:29.103Z,33.40
2023-02-11T00:58:58.311Z,29.50
2023-02-11T01:01:26.667Z,29.60
2023-02-11T01:03:55.240Z,29.50
2023-02-11T01:06:25.052Z,31.70
2023-02-11T01:08:53.612Z,29.70
2023-02-11T01:11:22.187Z,30.20
2023-02-11T01:13:50.809Z,31.40
2023-02-11T01:16:19.222Z,30.50
2023-02-11T01:18:47.776Z,31.10
2023-02-11T01:21:19.338Z,32.50
2023-02-11T01:23:47.568Z,31.40
2023-02-11T01:26:16.152Z,33.70
2023-02-11T01:28:44.637Z,30.20
2023-02-11T01:31:13.127Z,30.30
2023-02-11T01:33:41.644Z,28.90
2023-02-11T01:36:11.754Z,30.30
2023-02-11T01:38:41.435Z,29.90
2023-02-11T01:41:11.834Z,30.10
2023-02-11T01:43:42.712Z,33.60
2023-02-11T01:46:29.850Z,31.70
2023-02-11T01:49:07.988Z,31.90
2023-02-11T01:51:47.929Z,33.50
2023-02-11T01:54:41.044Z,33.20
2023-02-11T01:57:27.621Z,30.30
2023-02-11T02:00:37.194Z,28.30
2023-02-11T02:03:08.516Z,29.40
2023-02-11T02:05:43.141Z,29.50
2023-02-11T02:08:33.998Z,30.30
2023-02-11T02:11:07.484Z,32.20
2023-02-11T02:16:11.894Z,33.40
2023-02-11T02:18:43.671Z,29.30
2023-02-11T02:21:46.981Z,30.50
2023-02-11T02:24:27.921Z,30.60
2023-02-11T02:27:02.342Z,29.40
2023-02-11T02:30:04.997Z,28.70
2023-02-11T02:32:43.516Z,29.80
2023-02-11T02:35:42.495Z,30.90
2023-02-11T02:38:21.613Z,31.20
2023-02-11T02:40:52.774Z,29.40
2023-02-11T02:43:22.061Z,28.60
2023-02-11T02:45:50.533Z,29.80
2023-02-11T02:48:33.368Z,31.90
2023-02-11T02:51:07.583Z,31.00
2023-02-11T02:53:54.564Z,31.80
2023-02-11T02:56:45.514Z,33.80
2023-02-11T02:59:28.670Z,31.80
2023-02-11T03:02:09.029Z,31.30
2023-02-11T03:04:53.200Z,31.90
2023-02-11T03:07:24.452Z,33.20
2023-02-11T03:09:58.465Z,32.50
2023-02-11T03:12:28.030Z,34.10
2023-02-11T03:14:56.768Z,31.60
2023-02-11T03:17:25.350Z,30.50
2023-02-11T03:19:53.681Z,30.70
2023-02-11T03:22:34.023Z,31.50
2023-02-11T03:25:02.403Z,30.90
2023-02-11T03:27:41.753Z,33.00
2023-02-11T03:30:10.333Z,34.40
2023-02-11T03:32:41.100Z,32.10
2023-02-11T03:35:19.614Z,31.10
2023-02-11T03:38:00.279Z,37.10
2023-02-11T03:40:30.323Z,33.00
2023-02-11T03:43:00.563Z,33.10
2023-02-11T03:45:29.170Z,33.50
2023-02-11T03:48:12.213Z,31.60
2023-02-11T03:50:40.547Z,31.70
2023-02-11T03:53:08.841Z,31.90
2023-02-11T03:55:38.295Z,34.10
2023-02-11T03:58:07.598Z,29.10
2023-02-11T04:00:38.054Z,31.80
2023-02-11T04:03:06.692Z,36.40
2023-02-11T04:05:36.262Z,34.10
2023-02-11T04:08:04.728Z,35.10
2023-02-11T04:10:35.432Z,32.50
2023-02-11T04:13:04.182Z,35.20
2023-02-11T04:15:33.322Z,35.30
2023-02-11T04:18:03.608Z,33.10
2023-02-11T04:20:33.015Z,33.20
2023-02-11T04:23:01.247Z,31.70
2023-02-11T04:25:29.893Z,38.00
2023-02-11T04:27:58.352Z,37.30
2023-02-11T04:30:27.257Z,33.40
2023-02-11T04:32:55.531Z,33.10
2023-02-11T04:35:24.079Z,34.20
2023-02-11T04:37:52.474Z,34.70
2023-02-11T04:40:20.724Z,33.90
2023-02-11T04:42:49.488Z,38.20
2023-02-11T04:45:18.093Z,36.60
2023-02-11T04:47:46.457Z,39.30
2023-02-11T04:50:14.825Z,36.10
2023-02-11T04:52:43.119Z,38.30
2023-02-11T04:55:12.676Z,37.30
2023-02-11T04:57:41.264Z,36.00
2023-02-11T05:00:11.011Z,39.20
2023-02-11T05:02:39.765Z,42.20
2023-02-11T05:05:08.215Z,37.10
2023-02-11T05:07:36.805Z,36.40
2023-02-11T05:10:05.228Z,39.40
2023-02-11T05:12:34.119Z,39.10
2023-02-11T05:15:02.395Z,36.90
2023-02-11T05:17:31.493Z,38.80
2023-02-11T05:19:59.795Z,36.30
2023-02-11T05:22:28.066Z,34.60
2023-02-11T05:24:56.677Z,34.30
2023-02-11T05:27:25.042Z,31.30
2023-02-11T05:29:53.591Z,34.90
2023-02-11T05:32:21.813Z,34.80
2023-02-11T05:34:50.041Z,34.10
2023-02-11T05:37:18.757Z,34.10
2023-02-11T05:39:47.055Z,32.40
2023-02-11T05:42:15.344Z,33.90
2023-02-11T05:44:43.723Z,35.60
2023-02-11T05:47:12.578Z,37.30
2023-02-11T05:49:41.434Z,33.90
2023-02-11T05:52:09.843Z,35.30
2023-02-11T05:54:38.797Z,33.80
2023-02-11T05:57:07.160Z,30.60
2023-02-11T05:59:37.076Z,32.20
2023-02-11T06:02:05.696Z,31.50
2023-02-11T06:04:35.040Z,30.00
2023-02-11T06:07:06.187Z,31.20
2023-02-11T06:09:34.783Z,30.60
2023-02-11T06:12:03.072Z,31.60
2023-02-11T06:14:34.466Z,35.50
2023-02-11T06:17:04.036Z,34.90
2023-02-11T06:19:36.480Z,31.90
2023-02-11T06:22:04.983Z,32.20
2023-02-11T06:24:58.566Z,37.10
2023-02-11T06:27:22.481Z,32.70
2023-02-11T06:29:52.965Z,32.20
2023-02-11T06:32:42.268Z,36.00
2023-02-11T06:35:12.113Z,33.40
2023-02-11T06:37:42.823Z,34.60
2023-02-11T06:40:11.506Z,34.00
2023-02-11T06:42:40.083Z,37.90
2023-02-11T06:45:13.508Z,26.30
2023-02-11T06:47:42.715Z,30.90
2023-02-11T06:50:12.672Z,33.40
2023-02-11T06:52:41.907Z,32.90
2023-02-11T06:55:10.387Z,33.70
2023-02-11T06:57:38.965Z,29.80
2023-02-11T07:00:08.383Z,30.70
2023-02-11T07:02:39.500Z,32.80
2023-02-11T07:05:08.252Z,31.70
2023-02-11T07:07:37.015Z,31.20
2023-02-11T07:10:08.622Z,31.90
2023-02-11T07:12:40.683Z,31.70
2023-02-11T07:15:09.436Z,28.50
2023-02-11T07:17:37.689Z,31.20
2023-02-11T07:20:06.589Z,28.40
2023-02-11T07:22:36.069Z,25.80
2023-02-11T07:25:04.660Z,29.60
2023-02-11T07:27:34.360Z,27.40
2023-02-11T07:30:04.914Z,31.20
2023-02-11T07:32:35.223Z,28.60
2023-02-11T07:35:05.076Z,28.50
2023-02-11T07:37:35.325Z,26.50
2023-02-11T07:40:04.340Z,27.50
2023-02-11T07:42:33.908Z,25.00
2023-02-11T07:45:02.401Z,23.10
2023-02-11T07:47:30.980Z,28.90
2023-02-11T07:49:59.733Z,26.20
2023-02-11T07:52:31.496Z,26.20
2023-02-11T07:55:02.089Z,27.70
2023-02-11T07:57:31.991Z,27.40
2023-02-11T08:00:00.373Z,28.70
2023-02-11T08:02:28.701Z,30.30
2023-02-11T08:04:56.961Z,29.70
2023-02-11T08:07:26.307Z,31.40
2023-02-11T08:09:55.830Z,29.30
2023-02-11T08:12:25.191Z,32.80
2023-02-11T08:14:53.687Z,30.70
2023-02-11T08:17:21.967Z,29.40
2023-02-11T08:19:50.344Z,31.30
2023-02-11T08:22:18.609Z,32.20
2023-02-11T08:24:47.192Z,28.70
2023-02-11T08:27:16.056Z,27.50
2023-02-11T08:29:44.451Z,31.20
2023-02-11T08:32:15.949Z,28.80
2023-02-11T08:34:44.136Z,33.50
2023-02-11T08:37:12.411Z,32.30
2023-02-11T08:39:40.760Z,30.80
2023-02-11T08:42:09.115Z,31.40
2023-02-11T08:44:37.886Z,32.20
2023-02-11T08:47:06.628Z,32.60
2023-02-11T08:49:35.459Z,31.70
2023-02-11T08:52:04.521Z,30.30
2023-02-11T08:54:35.040Z,33.60
2023-02-11T08:57:03.481Z,32.00
2023-02-11T08:59:32.011Z,31.30
2023-02-11T09:02:00.670Z,32.00
2023-02-11T09:04:29.284Z,35.90
2023-02-11T09:06:57.789Z,31.00
2023-02-11T09:09:26.209Z,32.70
2023-02-11T09:11:57.421Z,33.80
2023-02-11T09:14:25.634Z,32.10
2023-02-11T09:16:54.247Z,34.10
2023-02-11T09:19:25.670Z,35.00
2023-02-11T09:21:54.396Z,33.90
2023-02-11T09:24:22.600Z,37.00
2023-02-11T09:26:51.215Z,33.00
2023-02-11T09:29:19.848Z,31.80
2023-02-11T09:31:48.428Z,34.70
2023-02-11T09:34:17.412Z,32.20
2023-02-11T09:36:45.846Z,34.60
2023-02-11T09:39:19.005Z,33.00
2023-02-11T09:42:11.032Z,33.00
2023-02-11T09:44:39.908Z,36.30
2023-02-11T09:47:28.863Z,35.20
2023-02-11T09:50:01.058Z,38.50
2023-02-11T09:53:02.729Z,39.70
2023-02-11T09:55:38.137Z,34.90
2023-02-11T09:58:14.420Z,35.20
2023-02-11T10:00:53.182Z,34.20
2023-02-11T10:03:47.525Z,37.10
2023-02-11T10:06:24.931Z,39.90
2023-02-11T10:09:03.063Z,35.50
2023-02-11T10:11:50.254Z,38.40
2023-02-11T10:14:47.518Z,35.20
2023-02-11T10:17:24.421Z,38.60
2023-02-11T10:19:57.948Z,39.00
2023-02-11T10:22:38.218Z,38.90
2023-02-11T10:25:28.070Z,41.40
2023-02-11T10:27:58.827Z,39.00
2023-02-11T10:30:38.462Z,38.50
2023-02-11T10:33:12.313Z,40.70
2023-02-11T10:35:44.221Z,41.00
2023-02-11T10:38:12.897Z,35.60
2023-02-11T10:40:41.579Z,37.20
2023-02-11T10:43:17.493Z,41.10
2023-02-11T10:45:52.883Z,40.10
2023-02-11T10:48:41.429Z,38.40
2023-02-11T10:51:14.640Z,38.90
2023-02-11T10:53:43.302Z,37.80
2023-02-11T10:56:26.977Z,41.70
2023-02-11T10:58:58.347Z,38.90
2023-02-11T11:01:46.427Z,39.80
2023-02-11T11:04:30.085Z,40.20
2023-02-11T11:07:22.481Z,38.80
2023-02-11T11:12:29.261Z,42.00
2023-02-11T11:15:01.756Z,39.70
2023-02-11T11:17:35.029Z,39.30
2023-02-11T11:20:20.833Z,38.30
2023-02-11T11:22:50.341Z,39.10
2023-02-11T11:25:27.711Z,39.00
2023-02-11T11:27:57.838Z,37.00
2023-02-11T11:30:41.268Z,38.30
2023-02-11T11:33:40.716Z,42.10
2023-02-11T11:36:11.603Z,37.50
2023-02-11T11:38:52.930Z,39.80
2023-02-11T11:41:23.772Z,38.30
2023-02-11T11:44:16.823Z,38.40
2023-02-11T11:46:45.334Z,37.80
2023-02-11T11:49:29.735Z,42.60
2023-02-11T11:52:16.291Z,42.40
2023-02-11T11:54:46.617Z,37.50
2023-02-11T11:57:24.075Z,36.10
2023-02-11T11:59:52.655Z,36.70
2023-02-11T12:02:58.572Z,41.00
2023-02-11T12:05:32.562Z,51.50
2023-02-11T12:08:11.440Z,38.60
2023-02-11T12:10:47.313Z,36.50
2023-02-11T12:13:20.211Z,40.60
2023-02-11T12:19:07.999Z,37.50
2023-02-11T12:21:45.999Z,39.90
2023-02-11T12:24:35.769Z,39.70
2023-02-11T12:27:27.219Z,39.80
2023-02-11T12:30:11.164Z,38.00
2023-02-11T12:33:16.485Z,39.20
2023-02-11T12:36:26.170Z,38.20
2023-02-11T12:39:11.069Z,40.60
2023-02-11T12:42:08.370Z,38.60
2023-02-11T12:44:38.333Z,41.20
2023-02-11T12:47:35.184Z,36.60
2023-02-11T12:50:22.381Z,34.10
2023-02-11T12:52:59.872Z,36.30
2023-02-11T12:55:30.332Z,36.90
2023-02-11T12:57:59.905Z,34.10
2023-02-11T13:00:47.835Z,36.20
2023-02-11T13:03:21.286Z,33.10
2023-02-11T13:05:59.388Z,33.90
2023-02-11T13:08:37.783Z,34.40
2023-02-11T13:11:14.337Z,38.30
2023-02-11T13:13:47.031Z,33.90
2023-02-11T13:16:37.323Z,36.40
2023-02-11T13:19:08.387Z,34.00
2023-02-11T13:21:56.974Z,23.60
2023-02-11T13:25:06.505Z,34.90
2023-02-11T13:28:20.968Z,31.60
2023-02-11T13:30:57.814Z,29.90
2023-02-11T13:33:37.713Z,30.30
2023-02-11T13:36:06.065Z,30.60
2023-02-11T13:38:35.253Z,29.70
2023-02-11T13:41:25.775Z,29.00
2023-02-11T13:44:01.521Z,28.50
2023-02-11T13:46:50.220Z,25.80
2023-02-11T13:49:24.032Z,26.50
2023-02-11T13:51:53.327Z,28.10
2023-02-11T13:54:46.712Z,24.40
2023-02-11T13:57:21.650Z,23.30
2023-02-11T13:59:58.866Z,26.90
2023-02-11T14:02:48.014Z,24.70
2023-02-11T14:05:44.772Z,24.10
2023-02-11T14:08:39.534Z,24.00
2023-02-11T14:11:33.751Z,22.70
2023-02-11T14:14:02.281Z,20.70
2023-02-11T14:16:37.962Z,23.60
2023-02-11T14:19:08.860Z,23.20
2023-02-11T14:21:38.970Z,20.80
2023-02-11T14:24:18.725Z,19.90
2023-02-11T14:26:49.604Z,17.50
2023-02-11T14:29:18.612Z,15.50
2023-02-11T14:32:02.341Z,17.20
2023-02-11T14:34:36.715Z,19.50
2023-02-11T14:37:15.457Z,16.40
2023-02-11T14:39:52.808Z,17.40
2023-02-11T14:42:22.824Z,17.20
2023-02-11T14:44:51.189Z,18.60
2023-02-11T14:47:30.593Z,14.90
2023-02-11T14:49:59.106Z,19.50
2023-02-11T14:52:31.697Z,18.30
2023-02-11T14:55:12.007Z,18.60
2023-02-11T14:57:42.364Z,19.00
2023-02-11T15:00:20.202Z,18.30
2023-02-11T15:02:48.896Z,19.60
2023-02-11T15:05:23.784Z,18.10
2023-02-11T15:08:00.999Z,19.90
2023-02-11T15:10:35.298Z,16.30
2023-02-11T15:13:05.113Z,17.50
2023-02-11T15:15:36.042Z,17.60
2023-02-11T15:18:04.392Z,17.70
2023-02-11T15:20:33.224Z,17.10
2023-02-11T15:23:07.989Z,17.50
2023-02-11T15:25:43.541Z,18.70
2023-02-11T15:28:21.761Z,19.20
2023-02-11T15:30:57.703Z,16.90
2023-02-11T15:33:26.536Z,18.10
2023-02-11T15:35:55.077Z,22.10
2023-02-11T15:38:24.312Z,20.60
2023-02-11T15:41:01.279Z,26.00
2023-02-11T15:43:43.180Z,29.00
2023-02-11T15:46:13.905Z,22.90
2023-02-11T15:48:43.965Z,18.70
2023-02-11T15:51:30.229Z,18.00
2023-02-11T15:54:03.390Z,21.90
2023-02-11T15:56:42.340Z,20.10
2023-02-11T15:59:26.189Z,19.60
2023-02-11T16:01:55.054Z,21.80
2023-02-11T16:04:27.197Z,21.40
2023-02-11T16:06:55.789Z,21.30
2023-02-11T16:09:31.008Z,20.60
2023-02-11T16:12:20.976Z,24.20
2023-02-11T16:14:49.463Z,21.20
2023-02-11T16:17:22.522Z,22.80
2023-02-11T16:19:51.305Z,22.80
2023-02-11T16:22:30.429Z,22.70
2023-02-11T16:24:59.204Z,21.50
2023-02-11T16:27:39.846Z,23.20
2023-02-11T16:30:29.261Z,24.20
2023-02-11T16:32:57.552Z,24.30
2023-02-11T16:35:26.406Z,23.60
2023-02-11T16:37:56.062Z,24.60
2023-02-11T16:40:27.368Z,24.30
2023-02-11T16:42:56.390Z,23.00
2023-02-11T16:45:25.078Z,24.20
2023-02-11T16:47:53.277Z,22.70
2023-02-11T16:50:23.425Z,24.40
2023-02-11T16:52:52.851Z,20.50
2023-02-11T16:55:26.392Z,24.10
2023-02-11T16:57:55.043Z,22.70
2023-02-11T17:00:23.823Z,24.10
2023-02-11T17:02:52.197Z,24.10
2023-02-11T17:05:23.301Z,23.40
2023-02-11T17:07:53.156Z,23.70
2023-02-11T17:10:23.166Z,23.70
2023-02-11T17:12:51.761Z,23.10
2023-02-11T17:15:20.420Z,26.80
2023-02-11T17:17:51.324Z,25.50
2023-02-11T17:20:21.034Z,23.70
2023-02-11T17:22:49.890Z,21.50
2023-02-11T17:25:18.420Z,24.20
2023-02-11T17:27:46.834Z,23.90
2023-02-11T17:30:15.995Z,22.60
2023-02-11T17:32:44.544Z,21.50
2023-02-11T17:35:13.090Z,23.60
2023-02-11T17:37:41.470Z,24.90
2023-02-11T17:40:11.626Z,24.00
2023-02-11T17:42:40.521Z,23.20
2023-02-11T17:45:09.712Z,24.70
2023-02-11T17:47:37.893Z,23.30
2023-02-11T17:50:07.070Z,24.00
2023-02-11T17:52:43.024Z,23.80
2023-02-11T17:55:12.860Z,22.60
2023-02-11T17:57:41.790Z,24.00
2023-02-11T18:00:11.491Z,23.40
2023-02-11T18:05:11.279Z,22.70
2023-02-11T18:07:40.418Z,20.60
2023-02-11T18:10:10.049Z,22.70
2023-02-11T18:12:38.225Z,23.30
2023-02-11T18:15:07.820Z,21.30
2023-02-11T18:17:36.196Z,22.10
2023-02-11T18:20:05.318Z,21.10
2023-02-11T18:22:39.264Z,23.00
2023-02-11T18:25:08.362Z,24.20
2023-02-11T18:27:37.640Z,21.80
2023-02-11T18:30:07.507Z,22.80
2023-02-11T18:32:36.212Z,23.70
2023-02-11T18:35:05.033Z,20.70
2023-02-11T18:37:41.190Z,23.60
2023-02-11T18:40:11.294Z,24.30
2023-02-11T18:42:40.295Z,26.40
2023-02-11T18:45:09.888Z,22.90
2023-02-11T18:47:38.425Z,24.20
2023-02-11T18:50:07.508Z,20.50
2023-02-11T18:52:39.324Z,22.20
2023-02-11T18:57:36.500Z,26.10
2023-02-11T19:00:06.707Z,22.20
2023-02-11T19:02:35.587Z,22.60
2023-02-11T19:05:06.753Z,23.20
2023-02-11T19:07:35.341Z,23.30
2023-02-11T19:10:06.496Z,23.30
2023-02-11T19:12:35.921Z,22.70
2023-02-11T19:15:09.151Z,25.60
2023-02-11T19:17:38.872Z,24.30
2023-02-11T19:20:08.070Z,22.60
2023-02-11T19:22:36.625Z,24.50
2023-02-11T19:25:05.672Z,23.30
2023-02-11T19:27:34.475Z,25.10
2023-02-11T19:30:02.980Z,25.30
2023-02-11T19:32:31.804Z,24.00
2023-02-11T19:35:00.359Z,23.10
2023-02-11T19:37:29.146Z,23.30
2023-02-11T19:39:57.718Z,24.70
2023-02-11T19:42:27.824Z,23.70
2023-02-11T19:44:57.584Z,23.90
2023-02-11T19:47:27.958Z,25.80
2023-02-11T19:49:59.728Z,27.20
2023-02-11T19:52:27.935Z,27.80
2023-02-11T19:54:56.319Z,26.00
2023-02-11T19:57:24.578Z,26.20
2023-02-11T19:59:55.075Z,24.80
2023-02-11T20:02:23.665Z,26.90
2023-02-11T20:04:52.336Z,27.00
2023-02-11T20:07:20.948Z,24.70
2023-02-11T20:09:49.777Z,29.60
2023-02-11T20:12:18.289Z,25.00
2023-02-11T20:14:47.977Z,24.40
2023-02-11T20:17:16.656Z,26.30
2023-02-11T20:19:45.261Z,27.00
2023-02-11T20:22:13.653Z,25.90
2023-02-11T20:24:41.853Z,25.90
2023-02-11T20:27:11.714Z,23.40
2023-02-11T20:29:40.611Z,26.70
2023-02-11T20:32:10.974Z,25.20
2023-02-11T20:34:39.431Z,26.40
2023-02-11T20:37:08.724Z,28.20
2023-02-11T20:39:41.127Z,28.60
2023-02-11T20:42:11.773Z,28.60
2023-02-11T20:44:40.255Z,27.00
2023-02-11T20:47:08.574Z,26.30
2023-02-11T20:49:38.245Z,27.00
2023-02-11T20:52:08.344Z,26.00
2023-02-11T20:54:37.503Z,28.20
2023-02-11T20:57:05.739Z,27.70
2023-02-11T20:59:35.041Z,27.80
2023-02-11T21:02:04.441Z,26.20
2023-02-11T21:04:33.072Z,26.40
2023-02-11T21:07:01.911Z,26.70
2023-02-11T21:09:31.799Z,26.90
2023-02-11T21:12:03.721Z,29.90
2023-02-11T21:14:34.368Z,28.30
2023-02-11T21:17:02.886Z,26.70
2023-02-11T21:19:31.707Z,28.60
2023-02-11T21:22:01.930Z,26.10
2023-02-11T21:24:33.216Z,26.70
2023-02-11T21:27:07.372Z,25.00
2023-02-11T21:29:45.757Z,25.10
2023-02-11T21:32:21.432Z,29.00
2023-02-11T21:34:49.941Z,25.40
2023-02-11T21:37:18.124Z,26.50
2023-02-11T21:39:46.544Z,25.00
2023-02-11T21:42:15.019Z,25.50
2023-02-11T21:44:43.362Z,25.70
2023-02-11T21:47:12.123Z,30.20
2023-02-11T21:49:40.538Z,27.70
2023-02-11T21:52:09.004Z,28.10
2023-02-11T21:54:37.313Z,26.80
2023-02-11T21:57:05.618Z,27.50
2023-02-11T21:59:34.132Z,30.00
2023-02-11T22:02:02.524Z,27.00
2023-02-11T22:04:31.329Z,27.20
2023-02-11T22:06:59.583Z,27.80
2023-02-11T22:09:29.996Z,26.90
2023-02-11T22:11:58.684Z,30.10
2023-02-11T22:14:26.980Z,26.90
2023-02-11T22:16:55.554Z,27.50
2023-02-11T22:19:24.300Z,28.80
2023-02-11T22:21:53.596Z,26.00
2023-02-11T22:24:21.948Z,30.70
2023-02-11T22:26:50.894Z,31.50
2023-02-11T22:29:19.274Z,27.90
2023-02-11T22:31:47.471Z,26.80
2023-02-11T22:34:16.328Z,26.50
2023-02-11T22:36:47.232Z,29.30
2023-02-11T22:39:16.274Z,28.40
2023-02-11T22:41:45.627Z,29.50
2023-02-11T22:44:14.187Z,28.70
2023-02-11T22:46:43.473Z,30.50
2023-02-11T22:49:13.698Z,29.70
2023-02-11T22:51:42.135Z,28.10
2023-02-11T22:54:13.107Z,29.00
2023-02-11T22:56:41.615Z,25.20
2023-02-11T22:59:14.608Z,27.10
2023-02-11T23:01:43.005Z,28.90
2023-02-11T23:04:13.322Z,29.80
2023-02-11T23:06:41.669Z,26.40
2023-02-11T23:09:10.598Z,27.50
2023-02-11T23:11:39.569Z,27.30
2023-02-11T23:14:08.909Z,27.30
2023-02-11T23:16:39.317Z,29.80
2023-02-11T23:19:12.576Z,27.20
2023-02-11T23:21:41.594Z,25.30
2023-02-11T23:24:14.155Z,28.70
2023-02-11T23:26:43.914Z,25.00
2023-02-11T23:31:46.161Z,24.80
2023-02-11T23:34:20.526Z,25.10
2023-02-11T23:36:52.945Z,26.70
2023-02-11T23:39:23.300Z,27.70
2023-02-11T23:41:52.283Z,25.20
2023-02-11T23:44:20.428Z,25.60
2023-02-11T23:46:49.027Z,26.90
2023-02-11T23:49:17.278Z,25.10
2023-02-11T23:51:45.607Z,24.20
2023-02-11T23:54:14.700Z,24.30
2023-02-11T23:56:43.065Z,24.50
2023-02-11T23:59:11.870Z,24.40
